Time;durP1;ratioP1;P1;durP2;ratioP2;P2;SDS_P1;SDS_P2;PMS_P1;PMS_P2;Temp;Humidity;BMP_temperature;BMP_pressure;BME280_temperature;BME280_humidity;BME280_pressure;Samples;Min_cycle;Max_cycle;Signal;HPM_P1;HPM_P2
2022/06/04 00:00:48;;;;;;;3.97;3.03;;;16.20;15.90;;;;;;5017192;28;34324;-81
2022/06/04 00:03:14;;;;;;;7.13;3.13;;;16.10;16.00;;;;;;5001768;28;34023;-81
2022/06/04 00:05:43;;;;;;;3.45;3.15;;;16.10;16.00;;;;;;5017165;28;35614;-81
2022/06/04 00:08:10;;;;;;;3.20;2.90;;;16.10;16.20;;;;;;5015239;28;34155;-83
2022/06/04 00:16:06;;;;;;;5.22;3.33;;;15.90;16.20;;;;;;5031645;28;34237;-83
2022/06/04 00:18:33;;;;;;;5.68;3.22;;;15.90;16.30;;;;;;5030944;28;34147;-83
2022/06/04 00:20:59;;;;;;;3.75;3.20;;;15.80;16.30;;;;;;5015582;28;34399;-83
2022/06/04 00:23:26;;;;;;;4.72;3.30;;;15.80;16.40;;;;;;5014603;28;34666;-84
2022/06/04 00:25:55;;;;;;;6.07;3.38;;;15.70;16.50;;;;;;5014244;28;35860;-82
2022/06/04 00:28:23;;;;;;;3.20;2.90;;;15.70;16.70;;;;;;5014960;28;34187;-83
2022/06/04 00:30:50;;;;;;;4.03;3.20;;;15.60;16.50;;;;;;5032748;28;34202;-83
2022/06/04 00:33:17;;;;;;;3.55;3.25;;;15.60;16.60;;;;;;5012555;28;34494;-83
2022/06/04 00:35:46;;;;;;;3.50;3.20;;;15.50;16.60;;;;;;4997091;28;36561;-83
2022/06/04 00:38:14;;;;;;;3.38;3.08;;;15.50;16.70;;;;;;5014765;28;34135;-83
2022/06/04 00:40:54;;;;;;;3.40;3.10;;;15.50;16.70;;;;;;5013993;28;34087;-83
2022/06/04 00:43:21;;;;;;;5.20;3.00;;;15.50;18.00;;;;;;5032770;28;34509;-83
2022/06/04 00:46:22;;;;;;;3.40;3.10;;;15.40;16.70;;;;;;4996392;28;36051;-83
2022/06/04 00:48:48;;;;;;;6.28;3.47;;;15.40;19.00;;;;;;5002600;28;34163;-83
2022/06/04 00:51:14;;;;;;;3.67;3.38;;;15.30;16.70;;;;;;5013458;28;34103;-83
2022/06/04 00:53:41;;;;;;;4.85;3.35;;;15.30;16.80;;;;;;4998130;28;33996;-83
2022/06/04 00:59:44;;;;;;;3.40;3.10;;;15.20;18.60;;;;;;5032897;28;34350;-84
2022/06/04 01:02:39;;;;;;;3.40;3.10;;;15.20;18.70;;;;;;5015699;28;34231;-83
2022/06/04 01:05:29;;;;;;;5.78;3.22;;;15.20;19.80;;;;;;5019226;28;34084;-83
2022/06/04 01:08:12;;;;;;;3.67;3.38;;;15.10;18.60;;;;;;4999823;28;35825;-84
2022/06/04 01:10:50;;;;;;;5.15;3.40;;;15.10;17.70;;;;;;5031115;28;34160;-83
2022/06/04 01:13:56;;;;;;;5.72;3.40;;;15.00;17.70;;;;;;4998057;28;33736;-83
2022/06/04 01:16:43;;;;;;;4.28;3.17;;;15.00;19.50;;;;;;5006759;28;33803;-83
2022/06/04 01:19:37;;;;;;;3.60;3.30;;;14.90;17.90;;;;;;5014918;28;36381;-83
2022/06/04 01:22:24;;;;;;;4.05;3.28;;;14.90;18.90;;;;;;5000381;28;34503;-83
2022/06/04 01:25:15;;;;;;;3.92;3.53;;;14.90;17.90;;;;;;5013610;28;34108;-83
2022/06/04 01:27:48;;;;;;;3.50;3.20;;;14.90;18.30;;;;;;4998875;28;34634;-82
2022/06/04 01:30:24;;;;;;;4.53;3.08;;;14.80;17.80;;;;;;5029104;28;35187;-83
2022/06/04 01:33:06;;;;;;;4.93;3.92;;;14.80;18.20;;;;;;4991825;28;34615;-84
2022/06/04 01:35:59;;;;;;;3.83;3.53;;;14.80;19.40;;;;;;4993106;28;34131;-84
2022/06/04 01:38:31;;;;;;;4.15;3.63;;;14.80;19.60;;;;;;5011384;28;34420;-83
2022/06/04 01:41:03;;;;;;;4.72;3.38;;;14.70;17.90;;;;;;4993886;28;35995;-83
2022/06/04 01:43:39;;;;;;;3.50;3.20;;;14.70;17.60;;;;;;4993205;28;34214;-82
2022/06/04 01:46:24;;;;;;;5.00;3.70;;;14.70;18.10;;;;;;4992997;28;34365;-83
2022/06/04 01:48:57;;;;;;;4.00;3.60;;;14.70;20.00;;;;;;4982361;28;34270;-84
2022/06/04 01:51:28;;;;;;;4.05;3.75;;;14.70;18.30;;;;;;4974775;28;36092;-83
2022/06/04 01:54:01;;;;;;;8.13;3.53;;;14.70;18.20;;;;;;4994019;28;34139;-83
2022/06/04 01:56:35;;;;;;;4.18;3.20;;;14.60;18.50;;;;;;5011791;28;34230;-84
2022/06/04 01:59:13;;;;;;;4.85;3.95;;;14.60;18.30;;;;;;4993392;28;34244;-83
2022/06/04 02:01:41;;;;;;;3.88;3.50;;;14.60;18.60;;;;;;4992371;28;35667;-83
2022/06/04 02:04:20;;;;;;;4.15;3.75;;;14.60;18.10;;;;;;4977591;28;34306;-83
2022/06/04 02:09:47;;;;;;;3.97;3.17;;;14.60;18.30;;;;;;5012087;28;34327;-83
2022/06/04 02:12:13;;;;;;;5.07;3.55;;;14.50;19.00;;;;;;4992909;28;35538;-83
2022/06/04 02:14:42;;;;;;;5.30;3.53;;;14.50;18.30;;;;;;4978849;28;34338;-83
2022/06/04 02:17:13;;;;;;;4.47;3.33;;;14.50;18.30;;;;;;4994480;28;34143;-83
2022/06/04 02:19:40;;;;;;;8.35;4.00;;;14.50;18.50;;;;;;4994022;28;34349;-83
2022/06/04 02:22:08;;;;;;;3.90;3.50;;;14.50;18.40;;;;;;4992603;28;35926;-83
2022/06/04 02:24:33;;;;;;;4.70;3.65;;;14.50;18.60;;;;;;4976585;28;34534;-83
2022/06/04 02:27:01;;;;;;;3.45;3.17;;;14.50;18.90;;;;;;5011591;28;34518;-83
2022/06/04 02:29:27;;;;;;;4.40;3.47;;;14.50;18.90;;;;;;4993475;28;34374;-82
2022/06/04 02:32:15;;;;;;;4.03;3.63;;;14.50;18.80;;;;;;4993515;28;35640;-82
2022/06/04 02:35:04;;;;;;;3.85;3.47;;;14.50;19.70;;;;;;5010002;28;34254;-83
2022/06/04 02:37:43;;;;;;;4.50;3.75;;;14.50;21.70;;;;;;4977867;28;33709;-83
2022/06/04 02:40:19;;;;;;;4.00;3.60;;;14.40;19.20;;;;;;4977455;28;34194;-82
2022/06/04 02:42:53;;;;;;;3.90;3.42;;;14.40;19.80;;;;;;4993916;28;34499;-82
2022/06/04 02:45:33;;;;;;;4.38;3.70;;;14.40;19.40;;;;;;4994201;28;33733;-82
2022/06/04 02:48:20;;;;;;;5.70;3.78;;;14.40;20.80;;;;;;5009794;28;34192;-82
2022/06/04 02:50:51;;;;;;;4.55;3.70;;;14.40;19.90;;;;;;5009949;28;34701;-82
2022/06/04 02:53:18;;;;;;;4.03;3.65;;;14.40;19.40;;;;;;4976937;28;36671;-83
2022/06/04 02:55:53;;;;;;;4.30;3.90;;;14.40;19.20;;;;;;4993673;28;34336;-83
2022/06/04 02:58:30;;;;;;;4.60;3.78;;;14.40;19.70;;;;;;4993428;28;34125;-83
2022/06/04 03:00:59;;;;;;;4.53;4.00;;;14.40;20.60;;;;;;4984183;28;34315;-83
2022/06/04 03:03:25;;;;;;;4.57;3.63;;;14.30;19.50;;;;;;5009885;28;36109;-83
2022/06/04 03:05:54;;;;;;;4.60;3.75;;;14.30;19.50;;;;;;5011959;28;34048;-82
2022/06/04 03:08:21;;;;;;;3.90;3.60;;;14.30;19.50;;;;;;5030051;28;34237;-82
2022/06/04 03:10:48;;;;;;;3.70;3.40;;;14.30;19.60;;;;;;5013248;28;34505;-82
2022/06/04 03:13:14;;;;;;;3.90;3.50;;;14.30;19.60;;;;;;5013723;28;35565;-82
2022/06/04 03:15:40;;;;;;;4.68;3.75;;;14.30;19.60;;;;;;5013572;28;34167;-83
2022/06/04 03:18:07;;;;;;;4.85;3.83;;;14.30;19.60;;;;;;5012040;28;34110;-82
2022/06/04 03:20:33;;;;;;;4.18;3.78;;;14.30;19.80;;;;;;5016244;28;33845;-83
2022/06/04 03:22:59;;;;;;;4.70;3.85;;;14.30;19.80;;;;;;5034803;28;34275;-83
2022/06/04 03:25:25;;;;;;;4.15;3.75;;;14.30;19.90;;;;;;5016563;28;34143;-83
2022/06/04 03:27:51;;;;;;;3.67;3.30;;;14.30;19.80;;;;;;5017108;28;34222;-82
2022/06/04 03:30:17;;;;;;;6.63;3.60;;;14.30;19.80;;;;;;5016445;28;34569;-82
2022/06/04 03:32:44;;;;;;;4.10;3.70;;;14.30;19.90;;;;;;5016151;28;35285;-82
2022/06/04 03:35:10;;;;;;;4.22;3.88;;;14.30;19.90;;;;;;5016450;28;34381;-82
2022/06/04 03:37:36;;;;;;;3.60;3.25;;;14.30;20.10;;;;;;5015383;28;34388;-83
2022/06/04 03:40:04;;;;;;;3.90;3.50;;;14.30;20.10;;;;;;5015108;28;34380;-82
2022/06/04 03:42:30;;;;;;;3.95;3.55;;;14.30;20.30;;;;;;5014634;28;36575;-83
2022/06/04 03:44:56;;;;;;;6.13;4.00;;;14.20;20.10;;;;;;4999273;28;34399;-82
2022/06/04 03:47:22;;;;;;;4.25;3.40;;;14.30;20.20;;;;;;5034457;28;34153;-82
2022/06/04 03:49:48;;;;;;;3.92;3.53;;;14.30;20.20;;;;;;5014984;28;34561;-82
2022/06/04 03:52:15;;;;;;;5.15;3.65;;;14.30;20.20;;;;;;5015868;28;35955;-82
2022/06/04 04:00:17;;;;;;;3.47;3.17;;;14.30;20.30;;;;;;5016688;28;34078;-82
2022/06/04 04:02:46;;;;;;;5.13;3.90;;;14.30;20.60;;;;;;4983280;28;36571;-82
2022/06/04 04:05:14;;;;;;;6.40;3.53;;;14.40;20.30;;;;;;5032435;28;34341;-83
2022/06/04 04:07:40;;;;;;;4.47;3.70;;;14.40;20.40;;;;;;4998035;28;34065;-82
2022/06/04 04:10:08;;;;;;;4.25;3.72;;;14.40;20.30;;;;;;4997937;28;34008;-82
2022/06/04 04:12:34;;;;;;;5.43;4.75;;;14.40;20.50;;;;;;4997000;28;35980;-83
2022/06/04 04:15:00;;;;;;;5.00;4.47;;;14.50;20.50;;;;;;4999925;28;34204;-81
2022/06/04 04:17:26;;;;;;;4.63;3.90;;;14.50;20.50;;;;;;5014060;28;34177;-82
2022/06/04 04:20:00;;;;;;;6.88;3.53;;;14.50;20.50;;;;;;5014795;28;34134;-82
2022/06/04 04:22:26;;;;;;;4.72;3.78;;;14.60;21.30;;;;;;5031197;28;35238;-82
2022/06/04 04:24:53;;;;;;;4.20;3.75;;;14.60;20.70;;;;;;5031664;28;34349;-81
2022/06/04 04:27:19;;;;;;;7.13;3.75;;;14.60;20.70;;;;;;4999720;28;34044;-82
2022/06/04 04:29:45;;;;;;;4.55;3.70;;;14.60;20.70;;;;;;5014050;28;34725;-83
2022/06/04 04:32:11;;;;;;;4.50;3.80;;;14.70;20.70;;;;;;5031487;28;35339;-83
2022/06/04 04:34:37;;;;;;;5.75;4.18;;;14.80;20.70;;;;;;4997756;28;34203;-83
2022/06/04 04:37:04;;;;;;;4.45;4.05;;;14.80;20.70;;;;;;5013975;28;34233;-83
2022/06/04 04:39:30;;;;;;;4.93;4.15;;;14.90;20.90;;;;;;5015153;28;34153;-82
2022/06/04 04:41:55;;;;;;;4.60;3.78;;;15.00;20.90;;;;;;5031813;28;34152;-83
2022/06/04 04:44:22;;;;;;;4.38;3.85;;;15.00;20.90;;;;;;4998654;28;34279;-82
2022/06/04 04:46:57;;;;;;;4.10;3.70;;;15.00;20.90;;;;;;5014202;28;34199;-83
2022/06/04 04:49:23;;;;;;;5.20;4.20;;;15.10;21.50;;;;;;4997039;28;34918;-82
2022/06/04 04:51:50;;;;;;;4.57;4.18;;;15.20;21.00;;;;;;5014894;28;36505;-80
2022/06/04 04:54:16;;;;;;;5.53;4.00;;;15.20;21.00;;;;;;5015279;28;34164;-80
2022/06/04 04:56:42;;;;;;;5.05;4.25;;;15.30;21.10;;;;;;5014626;28;34141;-82
2022/06/04 04:59:08;;;;;;;4.85;4.15;;;15.40;21.00;;;;;;5015596;28;34380;-81
2022/06/04 05:01:35;;;;;;;6.53;4.03;;;15.50;21.20;;;;;;5016429;28;34556;-81
2022/06/04 05:04:01;;;;;;;4.40;3.85;;;15.60;21.10;;;;;;5016314;28;34225;-81
2022/06/04 05:06:27;;;;;;;4.68;4.18;;;15.60;21.10;;;;;;4997026;28;34374;-82
2022/06/04 05:08:53;;;;;;;4.43;4.03;;;15.70;21.20;;;;;;5014342;28;34291;-81
2022/06/04 05:11:23;;;;;;;4.50;4.10;;;15.80;21.20;;;;;;5013032;28;35464;-82
2022/06/04 05:13:49;;;;;;;5.40;4.45;;;15.80;21.30;;;;;;5008950;28;34330;-81
2022/06/04 05:16:17;;;;;;;4.70;4.30;;;15.80;21.20;;;;;;5015547;28;34220;-81
2022/06/04 05:18:43;;;;;;;4.82;4.32;;;15.90;21.40;;;;;;5013763;28;34514;-81
2022/06/04 05:21:22;;;;;;;4.38;3.85;;;16.00;21.30;;;;;;5011213;28;35776;-81
2022/06/04 05:23:49;;;;;;;4.80;4.40;;;16.00;22.90;;;;;;4996703;28;34154;-82
2022/06/04 05:26:17;;;;;;;6.63;4.75;;;16.10;21.30;;;;;;5032759;28;34316;-82
2022/06/04 05:28:43;;;;;;;4.93;4.35;;;16.10;21.40;;;;;;4991540;28;34132;-82
2022/06/04 05:31:10;;;;;;;4.88;4.10;;;16.20;21.30;;;;;;4998205;28;35857;-82
2022/06/04 05:33:36;;;;;;;5.93;4.10;;;16.30;21.40;;;;;;5010538;28;34367;-81
2022/06/04 05:36:03;;;;;;;4.85;3.85;;;16.30;21.40;;;;;;4995810;28;34031;-82
2022/06/04 05:38:34;;;;;;;5.15;4.20;;;16.30;21.40;;;;;;5000027;28;34338;-82
2022/06/04 05:41:02;;;;;;;6.20;4.57;;;16.40;21.40;;;;;;4979784;28;35778;-82
2022/06/04 05:43:29;;;;;;;4.38;3.97;;;16.50;21.60;;;;;;4994475;28;33808;-82
2022/06/04 05:45:57;;;;;;;5.18;4.68;;;16.50;21.50;;;;;;5003802;28;34166;-81
2022/06/04 05:48:23;;;;;;;5.47;4.93;;;16.60;21.70;;;;;;4994057;28;34374;-81
2022/06/04 05:50:51;;;;;;;5.68;4.75;;;16.60;21.40;;;;;;5012836;28;36848;-81
2022/06/04 05:53:17;;;;;;;5.10;4.60;;;16.70;21.40;;;;;;4999369;28;34535;-82
2022/06/04 05:55:43;;;;;;;5.13;4.63;;;16.70;21.40;;;;;;5013278;28;34469;-82
2022/06/04 05:58:25;;;;;;;4.88;4.38;;;16.80;22.10;;;;;;5014242;28;34220;-83
2022/06/04 06:01:01;;;;;;;5.82;4.80;;;16.90;22.10;;;;;;5025771;28;34302;-82
2022/06/04 06:03:27;;;;;;;6.13;5.30;;;17.10;22.90;;;;;;4991987;28;34435;-82
2022/06/04 06:05:53;;;;;;;6.57;5.00;;;17.10;21.30;;;;;;5014867;28;34276;-82
2022/06/04 06:08:19;;;;;;;5.25;4.70;;;17.30;21.10;;;;;;5015711;28;34365;-82
2022/06/04 06:10:45;;;;;;;5.70;4.60;;;17.50;21.00;;;;;;5014166;28;34442;-82
2022/06/04 06:13:11;;;;;;;5.97;5.38;;;17.80;20.60;;;;;;5012940;28;34208;-83
2022/06/04 06:15:38;;;;;;;5.88;5.28;;;18.00;20.20;;;;;;5014169;28;34460;-83
2022/06/04 06:18:06;;;;;;;7.05;4.60;;;18.30;20.00;;;;;;5014343;28;34394;-83
2022/06/04 06:20:32;;;;;;;5.32;4.80;;;18.60;19.50;;;;;;4998348;28;36516;-84
2022/06/04 06:22:59;;;;;;;4.88;4.47;;;18.80;19.10;;;;;;4989657;28;33810;-83
2022/06/04 06:25:25;;;;;;;7.00;4.78;;;19.10;18.80;;;;;;4979547;28;34307;-83
2022/06/04 06:30:36;;;;;;;5.97;4.70;;;19.10;18.20;;;;;;5010341;28;34707;-85
2022/06/04 06:33:03;;;;;;;4.97;4.47;;;19.30;18.30;;;;;;5006004;28;34326;-83
2022/06/04 06:35:29;;;;;;;6.32;4.55;;;19.50;18.00;;;;;;5011917;28;34133;-81
2022/06/04 06:37:55;;;;;;;7.03;4.55;;;19.90;17.80;;;;;;5012126;28;33990;-82
2022/06/04 06:40:21;;;;;;;5.05;4.55;;;20.30;17.20;;;;;;5003094;28;35549;-83
2022/06/04 06:42:47;;;;;;;6.43;4.50;;;20.50;16.70;;;;;;5013304;28;34189;-83
2022/06/04 06:45:13;;;;;;;4.85;4.35;;;20.60;16.40;;;;;;4999275;28;34496;-83
2022/06/04 06:47:40;;;;;;;4.85;4.45;;;20.60;16.20;;;;;;5013862;28;34625;-84
2022/06/04 06:50:07;;;;;;;6.57;5.05;;;20.60;16.70;;;;;;5016184;28;35930;-83
2022/06/04 06:52:34;;;;;;;4.63;4.22;;;20.70;16.30;;;;;;5014927;28;34038;-82
2022/06/04 06:55:00;;;;;;;6.55;4.88;;;20.90;16.30;;;;;;5028955;28;34230;-83
2022/06/04 06:57:26;;;;;;;5.07;4.68;;;21.00;16.20;;;;;;5008823;28;33918;-83
2022/06/04 06:59:54;;;;;;;5.22;4.68;;;21.20;16.00;;;;;;5001889;28;35502;-82
2022/06/04 07:02:19;;;;;;;5.20;4.70;;;21.40;15.70;;;;;;5031456;28;34095;-83
2022/06/04 07:04:45;;;;;;;6.20;5.13;;;21.60;15.40;;;;;;4999677;28;34207;-82
2022/06/04 07:07:13;;;;;;;5.32;4.82;;;22.00;15.10;;;;;;5016603;28;34252;-83
2022/06/04 07:09:44;;;;;;;5.43;4.55;;;22.50;14.40;;;;;;5017245;28;34417;-83
2022/06/04 07:12:12;;;;;;;7.38;4.85;;;23.10;13.40;;;;;;5017473;28;33713;-82
2022/06/04 07:14:38;;;;;;;8.20;4.93;;;23.50;12.80;;;;;;4999460;28;33798;-83
2022/06/04 07:17:05;;;;;;;4.80;4.35;;;23.80;12.30;;;;;;5016079;28;34377;-79
2022/06/04 07:19:32;;;;;;;4.60;4.20;;;24.00;11.90;;;;;;5009353;28;36959;-81
2022/06/04 07:21:58;;;;;;;4.85;4.05;;;24.20;11.70;;;;;;5014076;28;34312;-81
2022/06/04 07:24:24;;;;;;;5.90;4.50;;;24.30;11.80;;;;;;5024127;28;34278;-81
2022/06/04 07:26:50;;;;;;;7.70;4.28;;;24.30;11.20;;;;;;5008014;28;34186;-82
2022/06/04 07:29:20;;;;;;;4.68;4.13;;;24.20;11.20;;;;;;5008384;28;36338;-84
2022/06/04 07:31:55;;;;;;;4.32;3.95;;;24.20;11.00;;;;;;4992895;28;34207;-83
2022/06/04 07:34:22;;;;;;;5.90;4.18;;;24.20;9.80;;;;;;5017229;28;33801;-83
2022/06/04 07:36:47;;;;;;;4.95;4.38;;;24.20;10.60;;;;;;4998602;28;33825;-83
2022/06/04 07:39:18;;;;;;;5.22;4.22;;;24.10;10.70;;;;;;4991980;28;36280;-82
2022/06/04 07:41:47;;;;;;;5.10;4.00;;;24.10;10.70;;;;;;5014681;28;33859;-82
2022/06/04 07:44:16;;;;;;;4.30;3.95;;;24.20;10.70;;;;;;5017367;28;34060;-81
2022/06/04 07:46:44;;;;;;;5.93;4.40;;;24.20;10.70;;;;;;5034328;28;34161;-81
2022/06/04 07:49:26;;;;;;;4.40;4.00;;;24.30;10.50;;;;;;4993224;28;35671;-80
2022/06/04 07:52:11;;;;;;;4.53;4.13;;;24.40;10.00;;;;;;5005662;28;34271;-80
2022/06/04 07:54:39;;;;;;;4.55;4.15;;;24.70;9.70;;;;;;5009730;28;34349;-81
2022/06/04 07:57:05;;;;;;;4.85;4.32;;;25.10;9.30;;;;;;5007697;28;34609;-81
2022/06/04 07:59:31;;;;;;;7.00;4.10;;;25.60;8.40;;;;;;5011696;28;35724;-84
2022/06/04 08:01:57;;;;;;;5.03;4.25;;;25.80;8.10;;;;;;5008643;28;34290;-81
2022/06/04 08:04:24;;;;;;;4.78;3.80;;;26.00;8.10;;;;;;4992607;28;34181;-79
2022/06/04 08:06:50;;;;;;;4.63;3.55;;;26.30;7.90;;;;;;4988395;28;34630;-81
2022/06/04 08:09:16;;;;;;;4.30;3.90;;;26.70;7.20;;;;;;5009792;28;35705;-78
2022/06/04 08:11:42;;;;;;;5.03;3.92;;;26.90;6.70;;;;;;5009547;28;34075;-81
2022/06/04 08:14:22;;;;;;;7.15;4.32;;;26.90;6.50;;;;;;5011997;28;34169;-81
2022/06/04 08:16:53;;;;;;;3.72;3.20;;;26.60;5.20;;;;;;5007345;28;34513;-82
2022/06/04 08:19:24;;;;;;;3.55;3.25;;;26.40;6.20;;;;;;4998395;28;36433;-81
2022/06/04 08:21:51;;;;;;;3.40;3.10;;;26.40;6.30;;;;;;5009038;28;34383;-81
2022/06/04 08:24:18;;;;;;;3.33;3.03;;;26.60;6.30;;;;;;4994430;28;34323;-81
2022/06/04 08:26:47;;;;;;;3.50;3.20;;;26.80;6.10;;;;;;4992444;28;34124;-83
2022/06/04 08:29:15;;;;;;;4.05;3.13;;;26.70;5.30;;;;;;5012397;28;36699;-81
2022/06/04 08:31:41;;;;;;;3.40;3.08;;;26.80;5.50;;;;;;4993007;28;34255;-81
2022/06/04 08:34:08;;;;;;;3.42;2.60;;;26.90;5.50;;;;;;4993296;28;34231;-81
2022/06/04 08:36:34;;;;;;;2.33;2.13;;;27.10;5.60;;;;;;4992727;28;33696;-85
2022/06/04 08:39:01;;;;;;;2.72;2.45;;;27.50;4.80;;;;;;5009328;28;36057;-83
2022/06/04 08:42:01;;;;;;;3.95;2.38;;;27.80;4.20;;;;;;5010437;28;34321;-79
2022/06/04 08:44:39;;;;;;;2.30;2.10;;;28.30;3.50;;;;;;4995370;28;33770;-83
2022/06/04 08:47:16;;;;;;;2.40;2.20;;;28.80;1.70;;;;;;5003314;28;34570;-80
2022/06/04 08:50:02;;;;;;;4.57;2.00;;;29.00;2.40;;;;;;5011846;28;35765;-81
2022/06/04 08:52:44;;;;;;;3.40;2.08;;;29.30;1.00;;;;;;5010582;28;34206;-81
2022/06/04 08:58:38;;;;;;;2.25;1.92;;;29.80;1.00;;;;;;4995729;28;34487;-79
2022/06/04 09:01:10;;;;;;;2.00;1.90;;;30.10;1.00;;;;;;4972571;28;35924;-79
2022/06/04 09:03:55;;;;;;;2.25;2.05;;;30.30;1.30;;;;;;4969599;28;34061;-79
2022/06/04 09:06:47;;;;;;;2.90;1.73;;;30.40;1.00;;;;;;4974683;28;34184;-79
2022/06/04 09:09:30;;;;;;;2.05;1.95;;;30.30;1.00;;;;;;4912603;28;34304;-80
2022/06/04 09:12:29;;;;;;;2.47;1.60;;;30.50;1.00;;;;;;4911950;28;34588;-82
2022/06/04 09:15:02;;;;;;;1.88;1.77;;;30.50;1.00;;;;;;4901202;29;34336;-80
2022/06/04 09:17:46;;;;;;;2.15;1.90;;;30.50;1.00;;;;;;4916248;29;34399;-81
2022/06/04 09:20:29;;;;;;;2.38;2.20;;;30.80;1.00;;;;;;4883159;29;34339;-80
2022/06/04 09:23:03;;;;;;;2.30;2.10;;;30.90;1.00;;;;;;4898350;29;35535;-81
2022/06/04 09:25:50;;;;;;;2.60;2.17;;;31.10;1.00;;;;;;4903038;29;34739;-79
2022/06/04 09:28:46;;;;;;;2.45;2.03;;;31.20;1.00;;;;;;4914417;28;34284;-81
2022/06/04 09:31:35;;;;;;;4.25;2.08;;;31.20;1.00;;;;;;4951987;28;33953;-81
2022/06/04 09:34:07;;;;;;;3.75;1.70;;;31.20;1.00;;;;;;4929959;28;36416;-81
2022/06/04 09:36:36;;;;;;;2.42;2.22;;;31.20;1.00;;;;;;4916346;28;34334;-82
2022/06/04 09:39:07;;;;;;;1.83;1.73;;;31.30;1.00;;;;;;4937882;28;34267;-79
2022/06/04 09:41:34;;;;;;;2.38;1.80;;;31.20;1.00;;;;;;4974117;28;33822;-80
2022/06/04 09:44:12;;;;;;;1.80;1.70;;;31.30;1.00;;;;;;4996325;28;34895;-83
2022/06/04 09:46:44;;;;;;;2.20;2.00;;;31.60;1.00;;;;;;4992637;28;34158;-81
2022/06/04 09:49:40;;;;;;;2.33;1.65;;;31.70;1.00;;;;;;4985412;28;34249;-82
2022/06/04 09:52:19;;;;;;;2.25;2.05;;;31.70;1.00;;;;;;4980308;28;34186;-82
2022/06/04 09:54:53;;;;;;;2.90;1.75;;;31.40;1.00;;;;;;4976917;28;35644;-83
2022/06/04 09:57:30;;;;;;;2.92;1.92;;;31.30;1.00;;;;;;4994124;28;34351;-81
2022/06/04 09:59:58;;;;;;;1.92;1.70;;;31.00;1.00;;;;;;4982972;28;34241;-82
2022/06/04 10:02:25;;;;;;;2.72;1.60;;;30.70;1.00;;;;;;4979509;28;34134;-81
2022/06/04 10:05:18;;;;;;;1.77;1.63;;;30.50;1.00;;;;;;4971912;28;35653;-79
2022/06/04 10:07:45;;;;;;;2.03;1.88;;;30.10;1.00;;;;;;4979534;28;34060;-83
2022/06/04 10:10:27;;;;;;;1.83;1.67;;;29.70;1.00;;;;;;5003225;28;34419;-83
2022/06/04 10:15:42;;;;;;;1.70;1.60;;;29.20;1.00;;;;;;5012541;28;34398;-83
2022/06/04 10:18:23;;;;;;;1.60;1.50;;;29.20;1.00;;;;;;4995190;28;34244;-83
2022/06/04 10:21:06;;;;;;;2.90;1.70;;;29.40;1.00;;;;;;4972365;28;34247;-82
2022/06/04 10:23:44;;;;;;;2.08;1.45;;;29.80;1.00;;;;;;4984604;28;34340;-82
2022/06/04 10:26:38;;;;;;;1.80;1.70;;;30.10;1.00;;;;;;4974349;28;36399;-82
2022/06/04 10:29:23;;;;;;;1.50;1.40;;;30.50;1.00;;;;;;4992798;28;34334;-81
2022/06/04 10:32:12;;;;;;;1.80;1.70;;;30.50;1.00;;;;;;4991331;28;34221;-82
2022/06/04 10:35:02;;;;;;;1.85;1.75;;;30.60;1.00;;;;;;4990217;28;34220;-82
2022/06/04 10:37:59;;;;;;;2.08;1.88;;;30.80;1.00;;;;;;4973162;28;34357;-83
2022/06/04 10:40:40;;;;;;;2.05;1.95;;;30.70;1.00;;;;;;4990588;28;34191;-82
2022/06/04 10:43:40;;;;;;;1.80;1.70;;;30.70;1.00;;;;;;4984503;28;34225;-81
2022/06/04 10:46:25;;;;;;;4.00;1.70;;;30.80;1.00;;;;;;4990150;28;34545;-82
2022/06/04 10:49:32;;;;;;;3.13;1.50;;;30.80;1.00;;;;;;4983158;28;36964;-83
2022/06/04 10:52:27;;;;;;;1.77;1.67;;;30.90;1.00;;;;;;4988290;28;34029;-83
2022/06/04 10:55:20;;;;;;;1.55;1.45;;;30.90;1.00;;;;;;4994427;28;34242;-78
2022/06/04 10:58:17;;;;;;;4.28;1.60;;;31.10;1.00;;;;;;4983273;28;35898;-79
2022/06/04 11:00:50;;;;;;;3.20;1.60;;;31.20;1.00;;;;;;4988989;28;36225;-81
2022/06/04 11:03:38;;;;;;;1.67;1.58;;;31.50;1.00;;;;;;4995291;28;34521;-80
2022/06/04 11:06:21;;;;;;;1.73;1.42;;;31.70;1.00;;;;;;4972908;28;34172;-79
2022/06/04 11:09:23;;;;;;;1.60;1.50;;;31.70;1.00;;;;;;4965744;28;34608;-83
2022/06/04 11:12:07;;;;;;;2.88;1.60;;;31.90;1.00;;;;;;4972434;28;34534;-82
2022/06/04 11:14:45;;;;;;;2.80;1.60;;;31.80;1.00;;;;;;4973622;28;34254;-83
2022/06/04 11:17:30;;;;;;;1.67;1.40;;;31.80;1.00;;;;;;4956184;28;34392;-82
2022/06/04 11:20:11;;;;;;;1.48;1.38;;;32.10;1.00;;;;;;4987761;28;34203;-81
2022/06/04 11:22:45;;;;;;;1.55;1.45;;;32.00;1.00;;;;;;4990939;28;34294;-79
2022/06/04 11:25:30;;;;;;;1.70;1.50;;;32.20;1.00;;;;;;4972573;28;34213;-81
2022/06/04 11:28:02;;;;;;;1.33;1.17;;;32.40;1.00;;;;;;4978194;28;34212;-81
2022/06/04 11:30:50;;;;;;;1.25;1.15;;;32.50;1.00;;;;;;4973177;28;34298;-80
2022/06/04 11:33:50;;;;;;;1.50;1.40;;;32.50;1.00;;;;;;5003332;28;35870;-81
2022/06/04 11:36:36;;;;;;;4.53;1.60;;;32.60;1.00;;;;;;5023388;28;34121;-84
2022/06/04 11:39:28;;;;;;;3.28;1.80;;;32.80;1.00;;;;;;5021432;28;34263;-82
2022/06/04 11:42:22;;;;;;;1.30;1.20;;;32.90;1.00;;;;;;5036321;28;34308;-82
2022/06/04 11:45:03;;;;;;;2.15;1.40;;;33.00;1.00;;;;;;5009903;28;35953;-81
2022/06/04 11:48:00;;;;;;;1.70;1.60;;;32.90;1.00;;;;;;4995016;28;34240;-81
2022/06/04 11:50:37;;;;;;;1.75;1.55;;;32.90;1.00;;;;;;5001688;28;34325;-82
2022/06/04 11:53:24;;;;;;;1.35;1.25;;;33.00;1.00;;;;;;5006400;28;34555;-81
2022/06/04 11:55:58;;;;;;;1.55;1.40;;;33.00;1.00;;;;;;5001566;28;35649;-81
2022/06/04 11:58:42;;;;;;;2.60;1.13;;;33.00;1.00;;;;;;5002819;28;34359;-81
2022/06/04 12:01:16;;;;;;;2.90;1.05;;;33.20;1.00;;;;;;5017343;28;34329;-81
2022/06/04 12:03:54;;;;;;;1.30;1.20;;;33.30;1.00;;;;;;5012719;28;34311;-81
2022/06/04 12:06:30;;;;;;;2.17;1.15;;;33.20;1.00;;;;;;5025983;28;35980;-82
2022/06/04 12:09:22;;;;;;;1.98;1.45;;;33.20;1.00;;;;;;4975320;28;34377;-81
2022/06/04 12:12:08;;;;;;;1.30;1.20;;;33.20;1.00;;;;;;5003913;28;34381;-81
2022/06/04 12:14:42;;;;;;;2.63;1.20;;;33.30;1.00;;;;;;5038805;28;34000;-77
2022/06/04 12:17:30;;;;;;;3.00;1.20;;;33.00;1.00;;;;;;4977656;28;36688;-80
2022/06/04 12:26:21;;;;;;;2.67;1.00;;;32.30;1.00;;;;;;5001887;28;34162;-80
2022/06/04 12:28:47;;;;;;;2.28;1.20;;;31.80;1.00;;;;;;4989861;28;34733;-82
2022/06/04 12:31:40;;;;;;;1.63;1.23;;;31.40;1.00;;;;;;5028263;28;34316;-82
2022/06/04 12:34:39;;;;;;;1.92;1.40;;;31.10;1.00;;;;;;5007755;28;34332;-79
2022/06/04 12:37:24;;;;;;;2.58;1.20;;;31.00;1.00;;;;;;4992741;28;34102;-81
2022/06/04 12:39:51;;;;;;;3.30;1.40;;;31.40;1.00;;;;;;4987183;28;34119;-83
2022/06/04 12:42:27;;;;;;;2.25;1.10;;;31.70;1.00;;;;;;4977682;28;34195;-83
2022/06/04 12:45:01;;;;;;;1.63;1.10;;;31.90;1.00;;;;;;4987182;28;34988;-85
2022/06/04 12:47:32;;;;;;;2.33;1.40;;;32.20;1.00;;;;;;5004198;28;34378;-81
2022/06/04 12:50:24;;;;;;;1.30;1.20;;;32.10;1.00;;;;;;5026277;28;34359;-82
2022/06/04 12:53:13;;;;;;;1.77;1.67;;;31.90;1.00;;;;;;5000780;28;34368;-81
2022/06/04 12:55:51;;;;;;;1.38;1.20;;;31.60;1.00;;;;;;5008720;28;34257;-82
2022/06/04 12:58:43;;;;;;;3.53;2.65;;;31.30;1.00;;;;;;5031310;28;34469;-80
2022/06/04 13:01:37;;;;;;;3.22;2.25;;;31.20;1.00;;;;;;4998916;28;36042;-80
2022/06/04 13:04:22;;;;;;;1.95;1.10;;;31.40;1.00;;;;;;5012543;28;34307;-84
2022/06/04 13:06:52;;;;;;;1.00;1.00;;;31.80;1.00;;;;;;5013561;28;34410;-82
2022/06/04 13:09:43;;;;;;;1.30;1.20;;;32.10;1.00;;;;;;5004306;28;34297;-82
2022/06/04 13:12:36;;;;;;;2.55;1.20;;;32.30;1.00;;;;;;5012285;28;36426;-82
2022/06/04 13:15:23;;;;;;;2.10;1.10;;;32.30;1.00;;;;;;5009066;28;33660;-80
2022/06/04 13:17:52;;;;;;;1.25;0.90;;;32.60;1.00;;;;;;5030872;28;35790;-81
2022/06/04 13:20:40;;;;;;;1.92;1.23;;;32.70;1.00;;;;;;4982027;28;34292;-83
2022/06/04 13:23:23;;;;;;;1.60;1.30;;;32.70;1.00;;;;;;5021351;28;35817;-83
2022/06/04 13:26:25;;;;;;;10.50;5.60;;;32.50;1.00;;;;;;5002741;28;34107;-79
2022/06/04 13:28:52;;;;;;;1.35;1.25;;;32.40;1.00;;;;;;4972644;28;35403;-82
2022/06/04 13:31:23;;;;;;;1.77;1.30;;;32.30;1.00;;;;;;4982720;28;34674;-81
2022/06/04 13:33:51;;;;;;;1.38;1.27;;;32.30;1.00;;;;;;4997993;28;35726;-83
2022/06/04 13:36:26;;;;;;;3.10;1.60;;;32.40;1.00;;;;;;4978445;28;34098;-80
2022/06/04 13:38:59;;;;;;;1.42;1.33;;;32.40;1.00;;;;;;4975713;28;34041;-82
2022/06/04 13:44:28;;;;;;;1.70;1.40;;;32.10;1.00;;;;;;4994013;28;34244;-83
2022/06/04 13:47:06;;;;;;;1.63;1.27;;;32.00;1.00;;;;;;4987771;28;34479;-82
2022/06/04 13:49:32;;;;;;;1.90;1.45;;;31.90;1.00;;;;;;4976929;28;34076;-79
2022/06/04 13:52:01;;;;;;;1.50;1.40;;;31.80;1.00;;;;;;5004665;28;34064;-81
2022/06/04 13:54:32;;;;;;;1.30;1.20;;;31.80;1.00;;;;;;4969436;28;35499;-79
2022/06/04 13:57:05;;;;;;;2.00;1.40;;;31.70;1.00;;;;;;4972984;28;34362;-84
2022/06/04 13:59:43;;;;;;;2.67;1.20;;;31.70;1.00;;;;;;5015231;28;34357;-82
2022/06/04 14:02:15;;;;;;;2.67;1.52;;;31.90;1.00;;;;;;4981926;28;34396;-82